sensor_id;sensor_type;location;lat;lon;timestamp;pressure;altitude;pressure_sealevel;temperature;humidity
67345;BME280;54230;52.402;6.276;2023-12-07T00:00:00;101950.0;;;3.3;78.6
67345;BME280;54230;52.402;6.276;2023-12-07T00:05:00;101950.0;;;3.4;78.5
67345;BME280;54230;52.402;6.276;2023-12-07T00:10:00;101950.0;;;3.4;78.4
67345;BME280;54230;52.402;6.276;2023-12-07T00:15:00;101950.0;;;3.3;78.3
67345;BME280;54230;52.402;6.276;2023-12-07T00:20:00;101960.0;;;3.3;78.5
67345;BME280;54230;52.402;6.276;2023-12-07T00:25:00;101950.0;;;3.3;78.7
67345;BME280;54230;52.402;6.276;2023-12-07T00:30:00;101960.0;;;3.4;78.7
67345;BME280;54230;52.402;6.276;2023-12-07T00:35:00;101960.0;;;3.4;78.7
67345;BME280;54230;52.402;6.276;2023-12-07T00:40:00;101960.0;;;3.5;78.7
67345;BME280;54230;52.402;6.276;2023-12-07T00:45:00;101950.0;;;3.5;78.7
67345;BME280;54230;52.402;6.276;2023-12-07T00:50:00;101960.0;;;3.5;78.7
67345;BME280;54230;52.402;6.276;2023-12-07T00:55:00;101960.0;;;3.5;78.7
67345;BME280;54230;52.402;6.276;2023-12-07T01:00:00;101960.0;;;3.5;78.7
67345;BME280;54230;52.402;6.276;2023-12-07T01:05:00;101960.0;;;3.6;78.5
67345;BME280;54230;52.402;6.276;2023-12-07T01:10:00;101960.0;;;3.6;78.2
67345;BME280;54230;52.402;6.276;2023-12-07T01:15:00;101970.0;;;3.5;78.3
67345;BME280;54230;52.402;6.276;2023-12-07T01:20:00;101970.0;;;3.6;78.4
67345;BME280;54230;52.402;6.276;2023-12-07T01:25:00;101970.0;;;3.6;78.2
67345;BME280;54230;52.402;6.276;2023-12-07T01:30:00;101970.0;;;3.7;78.1
67345;BME280;54230;52.402;6.276;2023-12-07T01:35:00;101980.0;;;3.8;78.0
67345;BME280;54230;52.402;6.276;2023-12-07T01:40:00;101970.0;;;4.0;77.5
67345;BME280;54230;52.402;6.276;2023-12-07T01:45:00;101970.0;;;3.9;77.2
67345;BME280;54230;52.402;6.276;2023-12-07T01:50:00;101970.0;;;4.0;76.7
67345;BME280;54230;52.402;6.276;2023-12-07T01:55:01;101970.0;;;4.0;76.4
67345;BME280;54230;52.402;6.276;2023-12-07T02:00:00;101980.0;;;3.7;76.3
67345;BME280;54230;52.402;6.276;2023-12-07T02:05:01;101980.0;;;3.6;76.4
67345;BME280;54230;52.402;6.276;2023-12-07T02:10:00;101970.0;;;3.5;76.5
67345;BME280;54230;52.402;6.276;2023-12-07T02:15:01;101980.0;;;3.4;76.5
67345;BME280;54230;52.402;6.276;2023-12-07T02:20:05;101980.0;;;3.3;76.4
67345;BME280;54230;52.402;6.276;2023-12-07T02:25:06;101980.0;;;3.3;76.2
67345;BME280;54230;52.402;6.276;2023-12-07T02:30:00;101980.0;;;3.1;76.4
67345;BME280;54230;52.402;6.276;2023-12-07T02:35:00;101980.0;;;3.0;76.7
67345;BME280;54230;52.402;6.276;2023-12-07T02:40:00;101980.0;;;2.9;76.7
67345;BME280;54230;52.402;6.276;2023-12-07T02:45:01;101970.0;;;2.8;76.7
67345;BME280;54230;52.402;6.276;2023-12-07T02:50:00;101970.0;;;2.8;76.5
67345;BME280;54230;52.402;6.276;2023-12-07T02:55:00;101970.0;;;2.8;76.2
67345;BME280;54230;52.402;6.276;2023-12-07T03:00:01;101970.0;;;2.6;77.0
67345;BME280;54230;52.402;6.276;2023-12-07T03:05:00;101970.0;;;2.5;77.5
67345;BME280;54230;52.402;6.276;2023-12-07T03:10:00;101970.0;;;2.6;77.6
67345;BME280;54230;52.402;6.276;2023-12-07T03:15:00;101960.0;;;2.7;77.0
67345;BME280;54230;52.402;6.276;2023-12-07T03:20:00;101960.0;;;2.8;76.2
67345;BME280;54230;52.402;6.276;2023-12-07T03:25:00;101970.0;;;2.8;75.6
67345;BME280;54230;52.402;6.276;2023-12-07T03:30:00;101970.0;;;2.4;76.1
67345;BME280;54230;52.402;6.276;2023-12-07T03:35:00;101980.0;;;2.3;77.0
67345;BME280;54230;52.402;6.276;2023-12-07T03:40:00;101980.0;;;2.3;77.6
67345;BME280;54230;52.402;6.276;2023-12-07T03:45:00;101980.0;;;2.3;77.8
67345;BME280;54230;52.402;6.276;2023-12-07T03:50:00;101990.0;;;2.3;77.9
67345;BME280;54230;52.402;6.276;2023-12-07T03:55:00;101990.0;;;2.3;77.8
67345;BME280;54230;52.402;6.276;2023-12-07T04:00:00;101990.0;;;2.3;77.6
67345;BME280;54230;52.402;6.276;2023-12-07T04:05:00;102000.0;;;2.4;77.4
67345;BME280;54230;52.402;6.276;2023-12-07T04:10:00;102000.0;;;2.5;76.7
67345;BME280;54230;52.402;6.276;2023-12-07T04:15:00;101990.0;;;2.6;76.6
67345;BME280;54230;52.402;6.276;2023-12-07T04:20:00;101990.0;;;2.6;76.2
67345;BME280;54230;52.402;6.276;2023-12-07T04:25:00;102000.0;;;2.6;75.3
67345;BME280;54230;52.402;6.276;2023-12-07T04:30:00;102000.0;;;2.6;74.7
67345;BME280;54230;52.402;6.276;2023-12-07T04:35:00;101990.0;;;2.4;74.4
67345;BME280;54230;52.402;6.276;2023-12-07T04:40:00;102000.0;;;2.1;74.8
67345;BME280;54230;52.402;6.276;2023-12-07T04:45:00;102000.0;;;1.9;75.7
67345;BME280;54230;52.402;6.276;2023-12-07T04:50:00;101990.0;;;2.0;75.8
67345;BME280;54230;52.402;6.276;2023-12-07T04:55:00;101990.0;;;2.1;75.4
67345;BME280;54230;52.402;6.276;2023-12-07T05:00:00;101990.0;;;2.2;75.1
67345;BME280;54230;52.402;6.276;2023-12-07T05:05:00;101990.0;;;2.2;75.0
67345;BME280;54230;52.402;6.276;2023-12-07T05:10:00;101990.0;;;2.2;75.3
67345;BME280;54230;52.402;6.276;2023-12-07T05:15:00;102000.0;;;2.0;75.2
67345;BME280;54230;52.402;6.276;2023-12-07T05:20:00;102000.0;;;2.0;75.7
67345;BME280;54230;52.402;6.276;2023-12-07T05:25:00;102000.0;;;2.0;75.8
67345;BME280;54230;52.402;6.276;2023-12-07T05:30:00;101990.0;;;1.9;75.7
67345;BME280;54230;52.402;6.276;2023-12-07T05:35:00;101990.0;;;1.9;75.9
67345;BME280;54230;52.402;6.276;2023-12-07T05:40:00;101990.0;;;1.7;76.6
67345;BME280;54230;52.402;6.276;2023-12-07T05:45:00;101990.0;;;1.8;76.7
67345;BME280;54230;52.402;6.276;2023-12-07T05:50:00;101990.0;;;1.8;76.6
67345;BME280;54230;52.402;6.276;2023-12-07T05:55:00;101980.0;;;1.9;76.7
67345;BME280;54230;52.402;6.276;2023-12-07T06:00:00;101980.0;;;1.9;76.8
67345;BME280;54230;52.402;6.276;2023-12-07T06:05:00;101980.0;;;1.8;76.8
67345;BME280;54230;52.402;6.276;2023-12-07T06:10:01;101980.0;;;1.8;76.4
67345;BME280;54230;52.402;6.276;2023-12-07T06:15:00;101980.0;;;1.6;76.6
67345;BME280;54230;52.402;6.276;2023-12-07T06:20:00;101980.0;;;1.5;76.9
67345;BME280;54230;52.402;6.276;2023-12-07T06:25:00;101980.0;;;1.5;76.6
67345;BME280;54230;52.402;6.276;2023-12-07T06:30:00;101990.0;;;1.6;76.1
67345;BME280;54230;52.402;6.276;2023-12-07T06:35:00;101990.0;;;1.6;76.2
67345;BME280;54230;52.402;6.276;2023-12-07T06:40:00;102000.0;;;1.5;76.9
67345;BME280;54230;52.402;6.276;2023-12-07T06:45:01;102000.0;;;1.6;77.3
67345;BME280;54230;52.402;6.276;2023-12-07T06:50:00;101990.0;;;1.8;77.5
67345;BME280;54230;52.402;6.276;2023-12-07T06:55:00;101990.0;;;1.9;77.3
67345;BME280;54230;52.402;6.276;2023-12-07T07:00:00;102000.0;;;2.0;77.5
67345;BME280;54230;52.402;6.276;2023-12-07T07:05:00;102000.0;;;2.0;77.8
67345;BME280;54230;52.402;6.276;2023-12-07T07:10:00;102010.0;;;2.2;78.0
67345;BME280;54230;52.402;6.276;2023-12-07T07:15:00;102010.0;;;2.1;78.0
67345;BME280;54230;52.402;6.276;2023-12-07T07:20:00;102000.0;;;2.0;78.3
67345;BME280;54230;52.402;6.276;2023-12-07T07:25:00;102010.0;;;2.0;78.6
67345;BME280;54230;52.402;6.276;2023-12-07T07:30:00;102010.0;;;1.9;78.9
67345;BME280;54230;52.402;6.276;2023-12-07T07:35:00;102020.0;;;1.9;79.1
67345;BME280;54230;52.402;6.276;2023-12-07T07:40:00;102030.0;;;2.1;79.0
67345;BME280;54230;52.402;6.276;2023-12-07T07:45:00;102030.0;;;2.0;79.2
67345;BME280;54230;52.402;6.276;2023-12-07T07:50:00;102030.0;;;2.1;79.2
67345;BME280;54230;52.402;6.276;2023-12-07T07:55:00;102020.0;;;2.1;79.0
67345;BME280;54230;52.402;6.276;2023-12-07T08:00:00;102030.0;;;2.2;78.7
67345;BME280;54230;52.402;6.276;2023-12-07T08:05:00;102030.0;;;2.2;78.6
67345;BME280;54230;52.402;6.276;2023-12-07T08:10:00;102030.0;;;2.2;78.9
67345;BME280;54230;52.402;6.276;2023-12-07T08:15:00;102040.0;;;2.3;78.9
67345;BME280;54230;52.402;6.276;2023-12-07T08:20:00;102040.0;;;2.5;78.6
67345;BME280;54230;52.402;6.276;2023-12-07T08:25:00;102040.0;;;2.7;77.9
67345;BME280;54230;52.402;6.276;2023-12-07T08:30:00;102050.0;;;2.7;78.0
67345;BME280;54230;52.402;6.276;2023-12-07T08:35:00;102040.0;;;2.7;78.1
67345;BME280;54230;52.402;6.276;2023-12-07T08:40:00;102030.0;;;2.5;78.8
67345;BME280;54230;52.402;6.276;2023-12-07T08:45:00;102030.0;;;2.7;78.4
67345;BME280;54230;52.402;6.276;2023-12-07T08:50:00;102050.0;;;2.7;78.7
67345;BME280;54230;52.402;6.276;2023-12-07T08:55:00;102040.0;;;2.8;78.4
67345;BME280;54230;52.402;6.276;2023-12-07T09:00:00;102040.0;;;3.0;78.4
67345;BME280;54230;52.402;6.276;2023-12-07T09:05:00;102030.0;;;2.9;78.8
67345;BME280;54230;52.402;6.276;2023-12-07T09:10:00;102040.0;;;3.0;78.4
67345;BME280;54230;52.402;6.276;2023-12-07T09:15:00;102030.0;;;3.0;78.6
67345;BME280;54230;52.402;6.276;2023-12-07T09:20:00;102030.0;;;3.0;78.4
67345;BME280;54230;52.402;6.276;2023-12-07T09:25:00;102030.0;;;3.0;78.5
67345;BME280;54230;52.402;6.276;2023-12-07T09:30:00;102020.0;;;3.0;78.5
67345;BME280;54230;52.402;6.276;2023-12-07T09:35:00;102030.0;;;3.1;78.7
67345;BME280;54230;52.402;6.276;2023-12-07T09:40:01;102030.0;;;3.1;78.8
67345;BME280;54230;52.402;6.276;2023-12-07T09:45:00;102020.0;;;3.2;79.0
67345;BME280;54230;52.402;6.276;2023-12-07T09:50:01;102010.0;;;3.3;78.7
67345;BME280;54230;52.402;6.276;2023-12-07T09:55:01;102010.0;;;3.3;78.2
67345;BME280;54230;52.402;6.276;2023-12-07T10:00:00;102010.0;;;3.4;78.2
67345;BME280;54230;52.402;6.276;2023-12-07T10:05:04;102000.0;;;3.3;78.4
67345;BME280;54230;52.402;6.276;2023-12-07T10:10:00;102010.0;;;3.5;78.3
67345;BME280;54230;52.402;6.276;2023-12-07T10:15:00;102000.0;;;3.4;78.7
67345;BME280;54230;52.402;6.276;2023-12-07T10:20:08;102000.0;;;3.4;79.0
67345;BME280;54230;52.402;6.276;2023-12-07T10:25:00;101980.0;;;3.4;79.1
67345;BME280;54230;52.402;6.276;2023-12-07T10:30:00;101990.0;;;3.6;79.1
67345;BME280;54230;52.402;6.276;2023-12-07T10:35:00;101980.0;;;3.6;79.0
67345;BME280;54230;52.402;6.276;2023-12-07T10:40:01;101980.0;;;3.5;79.4
67345;BME280;54230;52.402;6.276;2023-12-07T10:45:04;101970.0;;;3.4;79.6
67345;BME280;54230;52.402;6.276;2023-12-07T10:50:02;101980.0;;;3.5;79.9
67345;BME280;54230;52.402;6.276;2023-12-07T10:55:03;101980.0;;;3.6;79.4
67345;BME280;54230;52.402;6.276;2023-12-07T11:00:01;101960.0;;;3.5;79.9
67345;BME280;54230;52.402;6.276;2023-12-07T11:05:00;101960.0;;;3.7;79.5
67345;BME280;54230;52.402;6.276;2023-12-07T11:10:12;101950.0;;;3.9;79.2
67345;BME280;54230;52.402;6.276;2023-12-07T11:15:01;101950.0;;;3.9;79.0
67345;BME280;54230;52.402;6.276;2023-12-07T11:20:00;101940.0;;;4.1;78.7
67345;BME280;54230;52.402;6.276;2023-12-07T11:25:00;101930.0;;;3.8;78.9
67345;BME280;54230;52.402;6.276;2023-12-07T11:30:02;101910.0;;;3.7;79.2
67345;BME280;54230;52.402;6.276;2023-12-07T11:35:02;101920.0;;;3.8;79.1
67345;BME280;54230;52.402;6.276;2023-12-07T11:40:00;101910.0;;;3.9;79.3
67345;BME280;54230;52.402;6.276;2023-12-07T11:45:00;101900.0;;;4.0;79.2
67345;BME280;54230;52.402;6.276;2023-12-07T11:50:03;101900.0;;;4.2;79.2
67345;BME280;54230;52.402;6.276;2023-12-07T11:55:00;101890.0;;;4.4;79.0
67345;BME280;54230;52.402;6.276;2023-12-07T12:00:01;101890.0;;;4.3;79.3
67345;BME280;54230;52.402;6.276;2023-12-07T12:05:00;101880.0;;;4.4;79.6
67345;BME280;54230;52.402;6.276;2023-12-07T12:10:02;101870.0;;;4.4;79.2
67345;BME280;54230;52.402;6.276;2023-12-07T12:15:00;101860.0;;;4.5;79.0
67345;BME280;54230;52.402;6.276;2023-12-07T12:20:00;101860.0;;;4.5;79.0
67345;BME280;54230;52.402;6.276;2023-12-07T12:25:00;101860.0;;;4.4;79.1
67345;BME280;54230;52.402;6.276;2023-12-07T12:30:01;101860.0;;;4.4;79.5
67345;BME280;54230;52.402;6.276;2023-12-07T12:35:00;101850.0;;;4.4;79.7
67345;BME280;54230;52.402;6.276;2023-12-07T12:40:05;101840.0;;;4.4;79.8
67345;BME280;54230;52.402;6.276;2023-12-07T12:45:00;101830.0;;;4.5;79.7
67345;BME280;54230;52.402;6.276;2023-12-07T12:50:00;101820.0;;;4.5;80.0
67345;BME280;54230;52.402;6.276;2023-12-07T12:55:00;101800.0;;;4.4;80.3
67345;BME280;54230;52.402;6.276;2023-12-07T13:00:00;101800.0;;;4.7;80.2
67345;BME280;54230;52.402;6.276;2023-12-07T13:05:00;101800.0;;;4.9;80.0
67345;BME280;54230;52.402;6.276;2023-12-07T13:10:00;101800.0;;;4.9;80.1
67345;BME280;54230;52.402;6.276;2023-12-07T13:15:00;101800.0;;;5.0;79.7
67345;BME280;54230;52.402;6.276;2023-12-07T13:20:00;101790.0;;;4.8;80.0
67345;BME280;54230;52.402;6.276;2023-12-07T13:25:00;101780.0;;;4.8;79.8
67345;BME280;54230;52.402;6.276;2023-12-07T13:30:01;101770.0;;;4.7;79.9
67345;BME280;54230;52.402;6.276;2023-12-07T13:35:01;101770.0;;;4.8;80.1
67345;BME280;54230;52.402;6.276;2023-12-07T13:40:00;101770.0;;;4.9;80.1
67345;BME280;54230;52.402;6.276;2023-12-07T13:45:00;101770.0;;;4.8;80.1
67345;BME280;54230;52.402;6.276;2023-12-07T13:50:00;101760.0;;;4.7;80.1
67345;BME280;54230;52.402;6.276;2023-12-07T13:55:00;101750.0;;;4.8;80.0
67345;BME280;54230;52.402;6.276;2023-12-07T14:00:00;101750.0;;;4.9;79.7
67345;BME280;54230;52.402;6.276;2023-12-07T14:05:00;101740.0;;;4.9;79.9
67345;BME280;54230;52.402;6.276;2023-12-07T14:10:00;101730.0;;;4.9;79.7
67345;BME280;54230;52.402;6.276;2023-12-07T14:15:00;101720.0;;;4.9;79.5
67345;BME280;54230;52.402;6.276;2023-12-07T14:20:00;101720.0;;;4.9;79.3
67345;BME280;54230;52.402;6.276;2023-12-07T14:25:00;101700.0;;;4.9;79.0
67345;BME280;54230;52.402;6.276;2023-12-07T14:30:00;101690.0;;;4.8;78.8
67345;BME280;54230;52.402;6.276;2023-12-07T14:35:00;101690.0;;;4.8;79.0
67345;BME280;54230;52.402;6.276;2023-12-07T14:40:00;101690.0;;;4.8;79.0
67345;BME280;54230;52.402;6.276;2023-12-07T14:45:00;101680.0;;;4.9;78.7
67345;BME280;54230;52.402;6.276;2023-12-07T14:50:00;101680.0;;;5.0;78.7
67345;BME280;54230;52.402;6.276;2023-12-07T14:55:00;101670.0;;;5.0;78.8
67345;BME280;54230;52.402;6.276;2023-12-07T15:00:00;101650.0;;;5.0;78.7
67345;BME280;54230;52.402;6.276;2023-12-07T15:05:00;101660.0;;;5.1;78.5
67345;BME280;54230;52.402;6.276;2023-12-07T15:10:00;101650.0;;;5.0;78.4
67345;BME280;54230;52.402;6.276;2023-12-07T15:15:00;101640.0;;;4.8;78.1
67345;BME280;54230;52.402;6.276;2023-12-07T15:20:00;101640.0;;;4.8;77.9
67345;BME280;54230;52.402;6.276;2023-12-07T15:25:00;101630.0;;;4.9;77.6
67345;BME280;54230;52.402;6.276;2023-12-07T15:30:00;101620.0;;;4.9;77.3
67345;BME280;54230;52.402;6.276;2023-12-07T15:35:00;101610.0;;;4.8;77.2
67345;BME280;54230;52.402;6.276;2023-12-07T15:40:00;101610.0;;;4.7;77.2
67345;BME280;54230;52.402;6.276;2023-12-07T15:45:00;101610.0;;;4.5;77.5
67345;BME280;54230;52.402;6.276;2023-12-07T15:50:00;101610.0;;;4.6;77.4
67345;BME280;54230;52.402;6.276;2023-12-07T15:55:00;101600.0;;;4.6;77.2
67345;BME280;54230;52.402;6.276;2023-12-07T16:00:00;101590.0;;;4.6;77.1
67345;BME280;54230;52.402;6.276;2023-12-07T16:05:00;101590.0;;;4.8;77.3
67345;BME280;54230;52.402;6.276;2023-12-07T16:10:00;101580.0;;;6.1;76.6
67345;BME280;54230;52.402;6.276;2023-12-07T16:15:00;101570.0;;;6.7;76.7
67345;BME280;54230;52.402;6.276;2023-12-07T16:20:00;101560.0;;;7.2;76.1
67345;BME280;54230;52.402;6.276;2023-12-07T16:25:00;101550.0;;;7.2;76.9
67345;BME280;54230;52.402;6.276;2023-12-07T16:30:00;101540.0;;;7.3;77.1
67345;BME280;54230;52.402;6.276;2023-12-07T16:35:00;101530.0;;;7.3;76.9
67345;BME280;54230;52.402;6.276;2023-12-07T16:40:00;101520.0;;;6.7;76.4
67345;BME280;54230;52.402;6.276;2023-12-07T16:45:00;101520.0;;;6.4;76.6
67345;BME280;54230;52.402;6.276;2023-12-07T16:50:00;101510.0;;;6.4;76.2
67345;BME280;54230;52.402;6.276;2023-12-07T16:55:00;101510.0;;;6.5;75.7
67345;BME280;54230;52.402;6.276;2023-12-07T17:00:00;101500.0;;;6.0;75.8
67345;BME280;54230;52.402;6.276;2023-12-07T17:05:00;101500.0;;;6.0;75.7
67345;BME280;54230;52.402;6.276;2023-12-07T17:10:00;101500.0;;;6.0;75.6
67345;BME280;54230;52.402;6.276;2023-12-07T17:15:00;101500.0;;;5.9;75.2
67345;BME280;54230;52.402;6.276;2023-12-07T17:20:00;101500.0;;;5.8;75.3
67345;BME280;54230;52.402;6.276;2023-12-07T17:25:00;101500.0;;;5.7;74.9
67345;BME280;54230;52.402;6.276;2023-12-07T17:30:00;101490.0;;;5.9;74.8
67345;BME280;54230;52.402;6.276;2023-12-07T17:35:00;101490.0;;;5.6;74.9
67345;BME280;54230;52.402;6.276;2023-12-07T17:40:00;101490.0;;;5.6;74.4
67345;BME280;54230;52.402;6.276;2023-12-07T17:45:00;101490.0;;;5.7;74.6
67345;BME280;54230;52.402;6.276;2023-12-07T17:50:00;101490.0;;;5.7;74.2
67345;BME280;54230;52.402;6.276;2023-12-07T17:55:00;101480.0;;;5.6;74.1
67345;BME280;54230;52.402;6.276;2023-12-07T18:00:00;101470.0;;;5.4;74.3
67345;BME280;54230;52.402;6.276;2023-12-07T18:05:00;101450.0;;;5.5;74.3
67345;BME280;54230;52.402;6.276;2023-12-07T18:10:00;101430.0;;;5.8;74.3
67345;BME280;54230;52.402;6.276;2023-12-07T18:15:00;101420.0;;;5.7;74.6
67345;BME280;54230;52.402;6.276;2023-12-07T18:20:00;101410.0;;;5.7;74.6
67345;BME280;54230;52.402;6.276;2023-12-07T18:25:00;101410.0;;;5.7;74.4
67345;BME280;54230;52.402;6.276;2023-12-07T18:30:00;101410.0;;;5.6;74.1
67345;BME280;54230;52.402;6.276;2023-12-07T18:35:00;101400.0;;;5.7;74.4
67345;BME280;54230;52.402;6.276;2023-12-07T18:40:00;101410.0;;;5.9;74.0
67345;BME280;54230;52.402;6.276;2023-12-07T18:45:00;101410.0;;;5.9;73.9
67345;BME280;54230;52.402;6.276;2023-12-07T18:50:00;101400.0;;;5.9;74.0
67345;BME280;54230;52.402;6.276;2023-12-07T18:55:00;101410.0;;;6.0;74.0
67345;BME280;54230;52.402;6.276;2023-12-07T19:00:00;101400.0;;;6.1;73.9
67345;BME280;54230;52.402;6.276;2023-12-07T19:05:00;101390.0;;;6.0;74.0
67345;BME280;54230;52.402;6.276;2023-12-07T19:10:00;101400.0;;;6.2;73.5
67345;BME280;54230;52.402;6.276;2023-12-07T19:15:00;101380.0;;;5.6;73.7
67345;BME280;54230;52.402;6.276;2023-12-07T19:20:00;101380.0;;;5.0;74.3
67345;BME280;54230;52.402;6.276;2023-12-07T19:25:00;101370.0;;;4.7;74.6
67345;BME280;54230;52.402;6.276;2023-12-07T19:30:00;101350.0;;;4.6;74.9
67345;BME280;54230;52.402;6.276;2023-12-07T19:35:00;101350.0;;;4.5;75.0
67345;BME280;54230;52.402;6.276;2023-12-07T19:40:00;101340.0;;;4.4;75.3
67345;BME280;54230;52.402;6.276;2023-12-07T19:45:00;101330.0;;;4.4;75.4
67345;BME280;54230;52.402;6.276;2023-12-07T19:50:00;101330.0;;;4.6;75.5
67345;BME280;54230;52.402;6.276;2023-12-07T19:55:00;101320.0;;;4.6;75.7
67345;BME280;54230;52.402;6.276;2023-12-07T20:00:00;101320.0;;;4.6;75.7
67345;BME280;54230;52.402;6.276;2023-12-07T20:05:00;101300.0;;;4.6;75.9
67345;BME280;54230;52.402;6.276;2023-12-07T20:10:00;101280.0;;;4.6;75.9
67345;BME280;54230;52.402;6.276;2023-12-07T20:15:01;101260.0;;;4.6;76.0
67345;BME280;54230;52.402;6.276;2023-12-07T20:20:00;101250.0;;;4.7;76.0
67345;BME280;54230;52.402;6.276;2023-12-07T20:25:00;101240.0;;;4.7;75.7
67345;BME280;54230;52.402;6.276;2023-12-07T20:30:00;101240.0;;;4.6;75.5
67345;BME280;54230;52.402;6.276;2023-12-07T20:35:00;101230.0;;;4.6;75.4
67345;BME280;54230;52.402;6.276;2023-12-07T20:40:00;101240.0;;;4.6;75.5
67345;BME280;54230;52.402;6.276;2023-12-07T20:45:00;101230.0;;;4.6;75.5
67345;BME280;54230;52.402;6.276;2023-12-07T20:50:00;101200.0;;;4.7;75.3
67345;BME280;54230;52.402;6.276;2023-12-07T20:55:00;101210.0;;;4.6;75.0
67345;BME280;54230;52.402;6.276;2023-12-07T21:00:00;101200.0;;;4.8;74.6
67345;BME280;54230;52.402;6.276;2023-12-07T21:05:00;101180.0;;;4.8;74.2
67345;BME280;54230;52.402;6.276;2023-12-07T21:10:00;101170.0;;;4.7;74.0
67345;BME280;54230;52.402;6.276;2023-12-07T21:15:00;101160.0;;;4.7;74.0
67345;BME280;54230;52.402;6.276;2023-12-07T21:20:00;101170.0;;;4.6;73.8
67345;BME280;54230;52.402;6.276;2023-12-07T21:25:00;101150.0;;;4.8;73.4
67345;BME280;54230;52.402;6.276;2023-12-07T21:30:00;101140.0;;;4.8;73.2
67345;BME280;54230;52.402;6.276;2023-12-07T21:35:00;101130.0;;;4.8;73.0
67345;BME280;54230;52.402;6.276;2023-12-07T21:40:00;101130.0;;;4.8;72.9
67345;BME280;54230;52.402;6.276;2023-12-07T21:45:00;101130.0;;;4.8;72.9
67345;BME280;54230;52.402;6.276;2023-12-07T21:50:00;101120.0;;;4.8;72.7
67345;BME280;54230;52.402;6.276;2023-12-07T21:55:00;101090.0;;;4.8;72.5
67345;BME280;54230;52.402;6.276;2023-12-07T22:00:00;101080.0;;;4.9;72.4
67345;BME280;54230;52.402;6.276;2023-12-07T22:05:00;101080.0;;;5.0;72.4
67345;BME280;54230;52.402;6.276;2023-12-07T22:10:00;101080.0;;;5.0;72.1
67345;BME280;54230;52.402;6.276;2023-12-07T22:15:00;101080.0;;;4.8;71.8
67345;BME280;54230;52.402;6.276;2023-12-07T22:20:00;101070.0;;;4.7;71.5
67345;BME280;54230;52.402;6.276;2023-12-07T22:25:00;101050.0;;;4.7;71.3
67345;BME280;54230;52.402;6.276;2023-12-07T22:30:00;101040.0;;;4.6;71.3
67345;BME280;54230;52.402;6.276;2023-12-07T22:35:00;101030.0;;;4.7;71.3
67345;BME280;54230;52.402;6.276;2023-12-07T22:40:00;101020.0;;;4.6;71.2
67345;BME280;54230;52.402;6.276;2023-12-07T22:45:00;101010.0;;;4.6;70.9
67345;BME280;54230;52.402;6.276;2023-12-07T22:50:00;101010.0;;;4.6;70.9
67345;BME280;54230;52.402;6.276;2023-12-07T22:55:00;101010.0;;;4.6;70.8
67345;BME280;54230;52.402;6.276;2023-12-07T23:00:00;101000.0;;;4.6;70.7
67345;BME280;54230;52.402;6.276;2023-12-07T23:05:00;100990.0;;;4.6;70.6
67345;BME280;54230;52.402;6.276;2023-12-07T23:10:00;100970.0;;;4.7;70.3
67345;BME280;54230;52.402;6.276;2023-12-07T23:15:00;100970.0;;;4.6;70.3
67345;BME280;54230;52.402;6.276;2023-12-07T23:20:00;100970.0;;;4.6;70.4
67345;BME280;54230;52.402;6.276;2023-12-07T23:25:00;100960.0;;;4.6;70.3
67345;BME280;54230;52.402;6.276;2023-12-07T23:30:00;100970.0;;;4.6;70.3
67345;BME280;54230;52.402;6.276;2023-12-07T23:35:00;100980.0;;;4.5;70.4
67345;BME280;54230;52.402;6.276;2023-12-07T23:40:00;100980.0;;;4.6;70.2
67345;BME280;54230;52.402;6.276;2023-12-07T23:45:00;100960.0;;;4.6;70.0
67345;BME280;54230;52.402;6.276;2023-12-07T23:50:00;100950.0;;;4.6;70.0
67345;BME280;54230;52.402;6.276;2023-12-07T23:55:00;100930.0;;;4.6;70.1
